METAR Data
IDs: Format: Raw Decoded Include TAF

Data at: 0007 UTC 25 Apr 2019

METAR for:KIKV (Ankeny Rgnl, IA, US)
Text:KIKV 242355Z AUTO 00000KT 10SM CLR 20/09 A2979 RMK AO2
Temperature: 20.0°C ( 68°F)
Dewpoint: 9.0°C ( 48°F) [RH = 49%]
Pressure (altimeter):29.79 inches Hg (1008.9 mb)
Winds:calm
Visibility:10 or more sm (16+ km)
Ceiling:at least 12,000 feet AGL
Clouds:sky clear below 12,000 feet AGL
QC Flag:automated observation with no human augmentation